Accueil
METAR-TAF:

METAR-TAF

Aéroports :

Southampton, Angleterre

Aéroport de Southampton

latitude: 50-54N, longitude: 001-24W, altitude: 9 m

Observation

Le bulletin a été fait il y a 2 heures et 43 minutes, à 21:50 UTC
Vent 1 kt de nord/nord-est
Température 0°C
Humidité 93%
Pression 1025 hPa
Visibilité: 8000 m
Quelques nuages à une hauteur de 4000 ft

METAR: EGHI 212150Z 02001KT 8000 FEW040 00/M01 Q1025

Heure: 00:33 (00:33 UTC)

Prévision

Le bulletin a été fait il y a 4 heures et 36 minutes, à 19:57 UTC
Prévision valable du 21 à 21 UTC au 21 à 23 UTC
Vent 5 kt de nord-est
Visibilité: 7000 m
Quelques nuages à une hauteur de 4000 ft
Temporairement
du 21 à 21 UTC au 21 à 23 UTC
Visibilité 10 km ou plus

TAF: EGHI 211957Z 2121/2123 04005KT 7000 FEW040 TEMPO 2121/2123 9999

Observations et prévisions météorologiques de plus de 4000 aéroports (messages METAR et TAF).

Les stations disponibles sont représentées par des disques jaunes et rouges sur la carte.

Passer la souris dessus pour voir le nom de la station.

Cliquer dessus pour voir les observations et prévisions météorologiques.

Pour changer de carte: cliquez sur les boutons verts avec une croix noire pour zoomer, sur le bouton vert avec un tiret pour effectuer un zoom arrière, ou sur les flèches vertes pour les cartes adjacentes.


METAR-TAF: